sensor_id;sensor_type;location;lat;lon;timestamp;pressure;altitude;pressure_sealevel;temperature;humidity
62849;BME280;48941;49.516;8.286;2023-08-06T00:00:12;99531.38;;;16.28;100.00
62849;BME280;48941;49.516;8.286;2023-08-06T00:02:40;99519.16;;;16.26;100.00
62849;BME280;48941;49.516;8.286;2023-08-06T00:05:08;99523.00;;;16.23;100.00
62849;BME280;48941;49.516;8.286;2023-08-06T00:07:37;99523.22;;;16.22;100.00
62849;BME280;48941;49.516;8.286;2023-08-06T00:10:06;99509.59;;;16.23;100.00
62849;BME280;48941;49.516;8.286;2023-08-06T00:12:33;99501.91;;;16.20;100.00
62849;BME280;48941;49.516;8.286;2023-08-06T00:15:01;99497.00;;;16.24;100.00
62849;BME280;48941;49.516;8.286;2023-08-06T00:17:29;99490.97;;;16.22;100.00
62849;BME280;48941;49.516;8.286;2023-08-06T00:19:57;99480.25;;;16.22;100.00
62849;BME280;48941;49.516;8.286;2023-08-06T00:22:31;99473.84;;;16.23;100.00
62849;BME280;48941;49.516;8.286;2023-08-06T00:25:00;99470.88;;;16.18;100.00
62849;BME280;48941;49.516;8.286;2023-08-06T00:27:29;99468.84;;;16.20;99.61
62849;BME280;48941;49.516;8.286;2023-08-06T00:29:56;99462.81;;;16.18;99.83
62849;BME280;48941;49.516;8.286;2023-08-06T00:32:24;99466.97;;;16.20;99.18
62849;BME280;48941;49.516;8.286;2023-08-06T00:34:52;99462.09;;;16.24;98.41
62849;BME280;48941;49.516;8.286;2023-08-06T00:37:20;99457.72;;;16.23;97.96
62849;BME280;48941;49.516;8.286;2023-08-06T00:39:48;99450.84;;;16.20;97.73
62849;BME280;48941;49.516;8.286;2023-08-06T00:42:17;99459.75;;;16.21;97.75
62849;BME280;48941;49.516;8.286;2023-08-06T00:44:47;99454.75;;;16.18;97.07
62849;BME280;48941;49.516;8.286;2023-08-06T00:47:15;99458.75;;;16.22;97.01
62849;BME280;48941;49.516;8.286;2023-08-06T00:49:43;99452.72;;;16.20;96.65
62849;BME280;48941;49.516;8.286;2023-08-06T00:52:11;99453.06;;;16.17;96.83
62849;BME280;48941;49.516;8.286;2023-08-06T00:54:40;99449.91;;;16.13;96.81
62849;BME280;48941;49.516;8.286;2023-08-06T00:57:09;99451.41;;;16.16;96.71
62849;BME280;48941;49.516;8.286;2023-08-06T00:59:39;99440.38;;;16.10;96.52
62849;BME280;48941;49.516;8.286;2023-08-06T01:02:07;99440.19;;;16.12;96.42
62849;BME280;48941;49.516;8.286;2023-08-06T01:04:35;99435.81;;;16.11;96.33
62849;BME280;48941;49.516;8.286;2023-08-06T01:07:10;99422.56;;;16.09;96.79
62849;BME280;48941;49.516;8.286;2023-08-06T01:09:50;99420.53;;;16.11;96.24
62849;BME280;48941;49.516;8.286;2023-08-06T01:12:28;99422.94;;;16.06;96.68
62849;BME280;48941;49.516;8.286;2023-08-06T01:15:04;99415.72;;;16.07;96.26
62849;BME280;48941;49.516;8.286;2023-08-06T01:17:35;99418.13;;;16.02;96.69
62849;BME280;48941;49.516;8.286;2023-08-06T01:20:04;99411.47;;;15.98;97.20
62849;BME280;48941;49.516;8.286;2023-08-06T01:22:34;99412.56;;;16.03;96.45
62849;BME280;48941;49.516;8.286;2023-08-06T01:25:02;99407.91;;;15.97;97.02
62849;BME280;48941;49.516;8.286;2023-08-06T01:27:33;99406.91;;;15.98;96.96
62849;BME280;48941;49.516;8.286;2023-08-06T01:30:10;99411.97;;;15.93;97.21
62849;BME280;48941;49.516;8.286;2023-08-06T01:32:43;99405.31;;;15.89;97.69
62849;BME280;48941;49.516;8.286;2023-08-06T01:35:12;99401.97;;;15.87;97.70
62849;BME280;48941;49.516;8.286;2023-08-06T01:37:43;99401.31;;;15.85;97.84
62849;BME280;48941;49.516;8.286;2023-08-06T01:40:12;99405.22;;;15.82;97.89
62849;BME280;48941;49.516;8.286;2023-08-06T01:42:40;99408.72;;;15.83;97.77
62849;BME280;48941;49.516;8.286;2023-08-06T01:45:09;99412.59;;;15.80;97.83
62849;BME280;48941;49.516;8.286;2023-08-06T01:47:37;99414.47;;;15.80;98.16
62849;BME280;48941;49.516;8.286;2023-08-06T01:50:06;99416.13;;;15.81;98.30
62849;BME280;48941;49.516;8.286;2023-08-06T01:52:34;99422.97;;;15.83;98.01
62849;BME280;48941;49.516;8.286;2023-08-06T01:55:04;99422.16;;;15.83;97.88
62849;BME280;48941;49.516;8.286;2023-08-06T01:57:32;99423.81;;;15.84;98.12
62849;BME280;48941;49.516;8.286;2023-08-06T01:59:59;99416.59;;;15.84;98.08
62849;BME280;48941;49.516;8.286;2023-08-06T02:02:27;99422.78;;;15.85;97.54
62849;BME280;48941;49.516;8.286;2023-08-06T02:04:55;99412.06;;;15.85;97.39
62849;BME280;48941;49.516;8.286;2023-08-06T02:07:24;99414.56;;;15.86;97.10
62849;BME280;48941;49.516;8.286;2023-08-06T02:09:52;99414.19;;;15.89;96.89
62849;BME280;48941;49.516;8.286;2023-08-06T02:12:21;99417.53;;;15.91;96.66
62849;BME280;48941;49.516;8.286;2023-08-06T02:14:49;99399.59;;;15.92;96.16
62849;BME280;48941;49.516;8.286;2023-08-06T02:17:17;99411.16;;;15.92;95.79
62849;BME280;48941;49.516;8.286;2023-08-06T02:19:45;99397.06;;;15.90;95.65
62849;BME280;48941;49.516;8.286;2023-08-06T02:22:13;99403.00;;;15.86;95.83
62849;BME280;48941;49.516;8.286;2023-08-06T02:24:41;99402.34;;;15.84;95.94
62849;BME280;48941;49.516;8.286;2023-08-06T02:27:09;99395.78;;;15.86;96.02
62849;BME280;48941;49.516;8.286;2023-08-06T02:29:39;99399.47;;;15.85;95.77
62849;BME280;48941;49.516;8.286;2023-08-06T02:32:08;99395.78;;;15.86;95.68
62849;BME280;48941;49.516;8.286;2023-08-06T02:34:36;99387.53;;;15.88;95.27
62849;BME280;48941;49.516;8.286;2023-08-06T02:37:04;99396.91;;;15.92;95.33
62849;BME280;48941;49.516;8.286;2023-08-06T02:39:32;99387.00;;;15.92;94.79
62849;BME280;48941;49.516;8.286;2023-08-06T02:42:02;99377.06;;;15.93;94.50
62849;BME280;48941;49.516;8.286;2023-08-06T02:44:30;99377.72;;;15.95;93.86
62849;BME280;48941;49.516;8.286;2023-08-06T02:46:59;99379.22;;;15.98;93.86
62849;BME280;48941;49.516;8.286;2023-08-06T02:49:27;99370.97;;;15.99;93.35
62849;BME280;48941;49.516;8.286;2023-08-06T02:51:55;99368.94;;;16.01;93.08
62849;BME280;48941;49.516;8.286;2023-08-06T02:54:23;99373.13;;;16.04;92.77
62849;BME280;48941;49.516;8.286;2023-08-06T02:56:51;99373.31;;;16.02;92.99
62849;BME280;48941;49.516;8.286;2023-08-06T02:59:21;99365.91;;;16.04;93.30
62849;BME280;48941;49.516;8.286;2023-08-06T03:01:49;99375.59;;;16.05;93.03
62849;BME280;48941;49.516;8.286;2023-08-06T03:04:18;99366.38;;;16.08;93.60
62849;BME280;48941;49.516;8.286;2023-08-06T03:06:46;99357.44;;;16.07;93.80
62849;BME280;48941;49.516;8.286;2023-08-06T03:09:14;99354.31;;;16.04;93.96
62849;BME280;48941;49.516;8.286;2023-08-06T03:11:42;99357.44;;;16.07;93.98
62849;BME280;48941;49.516;8.286;2023-08-06T03:14:09;99353.78;;;16.08;93.45
62849;BME280;48941;49.516;8.286;2023-08-06T03:16:37;99348.41;;;16.08;93.33
62849;BME280;48941;49.516;8.286;2023-08-06T03:19:05;99346.53;;;16.09;92.98
62849;BME280;48941;49.516;8.286;2023-08-06T03:21:34;99345.06;;;16.06;92.34
62849;BME280;48941;49.516;8.286;2023-08-06T03:24:02;99345.06;;;16.06;92.88
62849;BME280;48941;49.516;8.286;2023-08-06T03:26:30;99357.66;;;16.06;92.35
62849;BME280;48941;49.516;8.286;2023-08-06T03:28:58;99353.47;;;16.03;93.33
62849;BME280;48941;49.516;8.286;2023-08-06T03:31:25;99352.28;;;16.06;92.77
62849;BME280;48941;49.516;8.286;2023-08-06T03:33:53;99354.78;;;16.07;92.92
62849;BME280;48941;49.516;8.286;2023-08-06T03:36:21;99349.59;;;16.06;93.11
62849;BME280;48941;49.516;8.286;2023-08-06T03:38:50;99356.81;;;16.05;93.41
62849;BME280;48941;49.516;8.286;2023-08-06T03:41:18;99356.63;;;16.07;93.70
62849;BME280;48941;49.516;8.286;2023-08-06T03:43:47;99361.44;;;16.11;92.27
62849;BME280;48941;49.516;8.286;2023-08-06T03:46:15;99345.25;;;16.05;92.17
62849;BME280;48941;49.516;8.286;2023-08-06T03:48:42;99352.28;;;16.06;91.71
62849;BME280;48941;49.516;8.286;2023-08-06T03:51:10;99350.59;;;16.05;91.87
62849;BME280;48941;49.516;8.286;2023-08-06T03:53:38;99350.59;;;16.05;91.44
62849;BME280;48941;49.516;8.286;2023-08-06T03:56:07;99353.47;;;16.03;91.38
62849;BME280;48941;49.516;8.286;2023-08-06T03:58:35;99354.50;;;16.02;91.53
62849;BME280;48941;49.516;8.286;2023-08-06T04:01:03;99358.19;;;16.01;91.84
62849;BME280;48941;49.516;8.286;2023-08-06T04:03:31;99347.34;;;15.95;90.57
62849;BME280;48941;49.516;8.286;2023-08-06T04:05:59;99349.22;;;15.94;90.22
62849;BME280;48941;49.516;8.286;2023-08-06T04:08:27;99344.50;;;15.96;90.20
62849;BME280;48941;49.516;8.286;2023-08-06T04:10:55;99352.56;;;15.96;89.88
62849;BME280;48941;49.516;8.286;2023-08-06T04:13:24;99350.34;;;16.00;90.13
62849;BME280;48941;49.516;8.286;2023-08-06T04:15:52;99358.19;;;16.01;90.37
62849;BME280;48941;49.516;8.286;2023-08-06T04:18:20;99356.81;;;16.05;89.79
62849;BME280;48941;49.516;8.286;2023-08-06T04:20:47;99353.78;;;16.08;89.44
62849;BME280;48941;49.516;8.286;2023-08-06T04:23:16;99349.13;;;16.17;88.64
62849;BME280;48941;49.516;8.286;2023-08-06T04:25:43;99353.97;;;16.22;87.91
62849;BME280;48941;49.516;8.286;2023-08-06T04:28:11;99352.28;;;16.21;87.37
62849;BME280;48941;49.516;8.286;2023-08-06T04:30:40;99351.47;;;16.20;86.90
62849;BME280;48941;49.516;8.286;2023-08-06T04:33:08;99342.09;;;16.16;87.05
62849;BME280;48941;49.516;8.286;2023-08-06T04:35:36;99355.28;;;16.26;86.24
62849;BME280;48941;49.516;8.286;2023-08-06T04:38:04;99345.16;;;16.13;87.44
62849;BME280;48941;49.516;8.286;2023-08-06T04:40:33;99342.19;;;16.08;87.64
62849;BME280;48941;49.516;8.286;2023-08-06T04:43:01;99344.03;;;16.07;88.16
62849;BME280;48941;49.516;8.286;2023-08-06T04:45:28;99340.50;;;16.07;88.76
62849;BME280;48941;49.516;8.286;2023-08-06T04:47:57;99345.06;;;16.06;89.01
62849;BME280;48941;49.516;8.286;2023-08-06T04:50:25;99338.88;;;16.06;89.45
62849;BME280;48941;49.516;8.286;2023-08-06T04:52:53;99342.19;;;16.08;90.46
62849;BME280;48941;49.516;8.286;2023-08-06T04:55:21;99347.38;;;16.09;90.33
62849;BME280;48941;49.516;8.286;2023-08-06T04:57:49;99337.47;;;16.10;90.50
62849;BME280;48941;49.516;8.286;2023-08-06T05:00:17;99341.63;;;16.12;90.40
62849;BME280;48941;49.516;8.286;2023-08-06T05:02:45;99340.81;;;16.12;90.78
62849;BME280;48941;49.516;8.286;2023-08-06T05:05:14;99343.66;;;16.10;91.10
62849;BME280;48941;49.516;8.286;2023-08-06T05:07:42;99352.56;;;16.11;91.52
62849;BME280;48941;49.516;8.286;2023-08-06T05:10:10;99353.03;;;16.15;91.55
62849;BME280;48941;49.516;8.286;2023-08-06T05:12:38;99355.06;;;16.12;91.34
62849;BME280;48941;49.516;8.286;2023-08-06T05:15:06;99358.97;;;16.10;91.39
62849;BME280;48941;49.516;8.286;2023-08-06T05:17:34;99349.59;;;16.06;91.19
62849;BME280;48941;49.516;8.286;2023-08-06T05:20:02;99351.66;;;16.04;91.82
62849;BME280;48941;49.516;8.286;2023-08-06T05:22:32;99357.53;;;15.99;91.07
62849;BME280;48941;49.516;8.286;2023-08-06T05:25:00;99352.81;;;16.01;90.25
62849;BME280;48941;49.516;8.286;2023-08-06T05:27:28;99348.56;;;16.07;89.86
62849;BME280;48941;49.516;8.286;2023-08-06T05:29:56;99352.94;;;16.08;89.25
62849;BME280;48941;49.516;8.286;2023-08-06T05:32:24;99349.78;;;16.04;88.78
62849;BME280;48941;49.516;8.286;2023-08-06T05:34:51;99355.81;;;16.06;88.33
62849;BME280;48941;49.516;8.286;2023-08-06T05:37:20;99353.03;;;16.29;86.55
62849;BME280;48941;49.516;8.286;2023-08-06T05:39:49;99356.38;;;16.17;86.90
62849;BME280;48941;49.516;8.286;2023-08-06T05:42:17;99359.44;;;16.13;87.51
62849;BME280;48941;49.516;8.286;2023-08-06T05:44:45;99362.13;;;16.13;87.77
62849;BME280;48941;49.516;8.286;2023-08-06T05:47:12;99350.53;;;16.13;87.65
62849;BME280;48941;49.516;8.286;2023-08-06T05:49:40;99358.56;;;16.13;87.55
62849;BME280;48941;49.516;8.286;2023-08-06T05:52:08;99360.44;;;16.12;87.92
62849;BME280;48941;49.516;8.286;2023-08-06T05:54:36;99359.78;;;16.10;87.73
62849;BME280;48941;49.516;8.286;2023-08-06T05:57:06;99363.94;;;16.13;87.57
62849;BME280;48941;49.516;8.286;2023-08-06T05:59:34;99361.91;;;16.15;87.69
62849;BME280;48941;49.516;8.286;2023-08-06T06:02:01;99370.81;;;16.16;87.68
62849;BME280;48941;49.516;8.286;2023-08-06T06:04:29;99365.38;;;16.24;86.92
62849;BME280;48941;49.516;8.286;2023-08-06T06:06:57;99370.09;;;16.22;87.11
62849;BME280;48941;49.516;8.286;2023-08-06T06:09:25;99370.75;;;16.24;87.20
62849;BME280;48941;49.516;8.286;2023-08-06T06:11:53;99364.91;;;16.20;87.97
62849;BME280;48941;49.516;8.286;2023-08-06T06:14:22;99369.78;;;16.17;88.28
62849;BME280;48941;49.516;8.286;2023-08-06T06:16:50;99372.47;;;16.17;88.50
62849;BME280;48941;49.516;8.286;2023-08-06T06:19:19;99372.78;;;16.22;88.10
62849;BME280;48941;49.516;8.286;2023-08-06T06:21:47;99370.09;;;16.22;88.25
62849;BME280;48941;49.516;8.286;2023-08-06T06:24:15;99370.09;;;16.22;88.52
62849;BME280;48941;49.516;8.286;2023-08-06T06:26:43;99380.28;;;16.26;88.14
62849;BME280;48941;49.516;8.286;2023-08-06T06:29:10;99383.22;;;16.31;88.11
62849;BME280;48941;49.516;8.286;2023-08-06T06:31:39;99387.94;;;16.29;88.84
62849;BME280;48941;49.516;8.286;2023-08-06T06:34:07;99376.84;;;16.32;88.30
62849;BME280;48941;49.516;8.286;2023-08-06T06:36:35;99384.16;;;16.39;87.51
62849;BME280;48941;49.516;8.286;2023-08-06T06:39:03;99382.50;;;16.38;88.00
62849;BME280;48941;49.516;8.286;2023-08-06T06:41:31;99378.78;;;16.39;87.88
62849;BME280;48941;49.516;8.286;2023-08-06T06:43:59;99386.66;;;16.40;87.88
62849;BME280;48941;49.516;8.286;2023-08-06T06:46:27;99384.81;;;16.41;87.63
62849;BME280;48941;49.516;8.286;2023-08-06T06:48:56;99390.75;;;16.51;86.64
62849;BME280;48941;49.516;8.286;2023-08-06T06:51:24;99391.22;;;16.55;86.22
62849;BME280;48941;49.516;8.286;2023-08-06T06:53:52;99389.56;;;16.53;86.58
62849;BME280;48941;49.516;8.286;2023-08-06T06:56:19;99387.94;;;16.59;86.21
62849;BME280;48941;49.516;8.286;2023-08-06T06:58:47;99383.88;;;16.63;86.49
62849;BME280;48941;49.516;8.286;2023-08-06T07:01:15;99382.47;;;16.67;85.58
62849;BME280;48941;49.516;8.286;2023-08-06T07:03:43;99386.19;;;16.66;85.58
62849;BME280;48941;49.516;8.286;2023-08-06T07:06:12;99388.78;;;16.75;85.75
62849;BME280;48941;49.516;8.286;2023-08-06T07:08:44;99386.38;;;16.80;85.36
62849;BME280;48941;49.516;8.286;2023-08-06T07:11:12;99386.19;;;16.81;86.16
62849;BME280;48941;49.516;8.286;2023-08-06T07:13:40;99393.97;;;16.91;84.60
62849;BME280;48941;49.516;8.286;2023-08-06T07:16:08;99386.38;;;16.95;84.45
62849;BME280;48941;49.516;8.286;2023-08-06T07:18:37;99394.06;;;16.98;84.41
62849;BME280;48941;49.516;8.286;2023-08-06T07:21:05;99385.72;;;17.07;84.29
62849;BME280;48941;49.516;8.286;2023-08-06T07:23:34;99393.00;;;17.14;84.40
62849;BME280;48941;49.516;8.286;2023-08-06T07:26:02;99383.44;;;17.11;83.36
62849;BME280;48941;49.516;8.286;2023-08-06T07:28:30;99387.81;;;17.12;83.96
62849;BME280;48941;49.516;8.286;2023-08-06T07:30:57;99391.34;;;17.12;83.33
62849;BME280;48941;49.516;8.286;2023-08-06T07:33:25;99386.41;;;17.16;84.07
62849;BME280;48941;49.516;8.286;2023-08-06T07:35:53;99389.94;;;17.17;83.81
62849;BME280;48941;49.516;8.286;2023-08-06T07:38:21;99394.84;;;17.13;84.95
62849;BME280;48941;49.516;8.286;2023-08-06T07:40:50;99391.78;;;17.16;85.47
62849;BME280;48941;49.516;8.286;2023-08-06T07:43:18;99393.44;;;17.17;85.68
62849;BME280;48941;49.516;8.286;2023-08-06T07:45:46;99387.69;;;17.20;85.32
62849;BME280;48941;49.516;8.286;2023-08-06T07:48:13;99391.84;;;17.23;86.40
62849;BME280;48941;49.516;8.286;2023-08-06T07:50:41;99389.03;;;17.31;84.19
62849;BME280;48941;49.516;8.286;2023-08-06T07:53:11;99393.59;;;17.30;83.86
62849;BME280;48941;49.516;8.286;2023-08-06T07:55:39;99389.50;;;17.35;83.36
62849;BME280;48941;49.516;8.286;2023-08-06T07:58:11;99393.09;;;17.42;84.08
62849;BME280;48941;49.516;8.286;2023-08-06T08:00:40;99390.97;;;17.59;83.65
62849;BME280;48941;49.516;8.286;2023-08-06T08:03:09;99391.34;;;17.77;81.74
62849;BME280;48941;49.516;8.286;2023-08-06T08:05:37;99386.09;;;17.90;81.10
62849;BME280;48941;49.516;8.286;2023-08-06T08:08:04;99377.94;;;18.05;80.70
62849;BME280;48941;49.516;8.286;2023-08-06T08:10:33;99381.97;;;18.23;79.15
62849;BME280;48941;49.516;8.286;2023-08-06T08:13:01;99384.53;;;18.31;78.20
62849;BME280;48941;49.516;8.286;2023-08-06T08:15:31;99375.88;;;18.42;78.07
62849;BME280;48941;49.516;8.286;2023-08-06T08:17:59;99385.50;;;18.51;78.60
62849;BME280;48941;49.516;8.286;2023-08-06T08:20:27;99381.53;;;18.47;76.90
62849;BME280;48941;49.516;8.286;2023-08-06T08:22:59;99372.59;;;18.47;77.81
62849;BME280;48941;49.516;8.286;2023-08-06T08:25:27;99371.94;;;18.45;77.32
62849;BME280;48941;49.516;8.286;2023-08-06T08:27:57;99371.44;;;18.63;74.81
62849;BME280;48941;49.516;8.286;2023-08-06T08:30:25;99369.16;;;18.60;75.46
62849;BME280;48941;49.516;8.286;2023-08-06T08:32:54;99350.03;;;18.55;75.53
62849;BME280;48941;49.516;8.286;2023-08-06T08:35:22;99366.63;;;18.58;75.99
62849;BME280;48941;49.516;8.286;2023-08-06T08:37:50;99363.59;;;18.68;74.90
62849;BME280;48941;49.516;8.286;2023-08-06T08:40:18;99362.53;;;18.69;73.67
62849;BME280;48941;49.516;8.286;2023-08-06T08:42:47;99370.59;;;18.62;73.85
62849;BME280;48941;49.516;8.286;2023-08-06T08:45:15;99357.94;;;18.63;72.97
62849;BME280;48941;49.516;8.286;2023-08-06T08:47:45;99365.09;;;18.77;73.85
62849;BME280;48941;49.516;8.286;2023-08-06T08:50:16;99362.44;;;18.84;72.72
62849;BME280;48941;49.516;8.286;2023-08-06T08:52:46;99363.25;;;18.84;72.75
62849;BME280;48941;49.516;8.286;2023-08-06T08:55:15;99370.53;;;18.84;72.97
62849;BME280;48941;49.516;8.286;2023-08-06T08:57:44;99369.63;;;18.77;73.15
62849;BME280;48941;49.516;8.286;2023-08-06T09:00:12;99369.63;;;18.77;73.47
62849;BME280;48941;49.516;8.286;2023-08-06T09:02:41;99364.84;;;18.79;71.88
62849;BME280;48941;49.516;8.286;2023-08-06T09:05:10;99362.38;;;18.77;71.69
62849;BME280;48941;49.516;8.286;2023-08-06T09:07:42;99365.31;;;18.82;72.10
62849;BME280;48941;49.516;8.286;2023-08-06T09:10:11;99361.69;;;19.03;70.95
62849;BME280;48941;49.516;8.286;2023-08-06T09:12:42;99355.50;;;19.29;71.16
62849;BME280;48941;49.516;8.286;2023-08-06T09:15:11;99353.84;;;19.42;70.25
62849;BME280;48941;49.516;8.286;2023-08-06T09:17:39;99357.38;;;19.49;70.45
62849;BME280;48941;49.516;8.286;2023-08-06T09:20:12;99359.06;;;19.50;67.91
62849;BME280;48941;49.516;8.286;2023-08-06T09:22:42;99362.16;;;19.47;68.48
62849;BME280;48941;49.516;8.286;2023-08-06T09:25:11;99367.31;;;19.28;68.51
62849;BME280;48941;49.516;8.286;2023-08-06T09:27:40;99371.03;;;19.21;70.25
62849;BME280;48941;49.516;8.286;2023-08-06T09:30:08;99371.84;;;19.08;70.63
62849;BME280;48941;49.516;8.286;2023-08-06T09:32:45;99374.09;;;18.98;74.08
62849;BME280;48941;49.516;8.286;2023-08-06T09:35:15;99367.56;;;18.79;77.42
62849;BME280;48941;49.516;8.286;2023-08-06T09:37:44;99375.59;;;18.65;81.07
62849;BME280;48941;49.516;8.286;2023-08-06T09:40:25;99384.09;;;18.27;82.64
62849;BME280;48941;49.516;8.286;2023-08-06T09:42:54;99387.44;;;18.01;84.68
62849;BME280;48941;49.516;8.286;2023-08-06T09:45:21;99387.38;;;17.95;85.26
62849;BME280;48941;49.516;8.286;2023-08-06T09:47:50;99391.25;;;17.85;84.89
62849;BME280;48941;49.516;8.286;2023-08-06T09:50:18;99386.22;;;17.82;83.37
62849;BME280;48941;49.516;8.286;2023-08-06T09:52:48;99381.44;;;17.78;82.18
62849;BME280;48941;49.516;8.286;2023-08-06T09:55:18;99387.97;;;17.68;82.12
62849;BME280;48941;49.516;8.286;2023-08-06T09:57:49;99387.13;;;17.68;81.72
62849;BME280;48941;49.516;8.286;2023-08-06T10:00:17;99394.16;;;17.69;81.39
62849;BME280;48941;49.516;8.286;2023-08-06T10:02:46;99402.00;;;17.64;81.16
62849;BME280;48941;49.516;8.286;2023-08-06T10:05:15;99407.53;;;17.56;82.63
62849;BME280;48941;49.516;8.286;2023-08-06T10:07:44;99399.19;;;17.50;83.04
62849;BME280;48941;49.516;8.286;2023-08-06T10:10:14;99402.84;;;17.43;83.59
62849;BME280;48941;49.516;8.286;2023-08-06T10:12:46;99401.38;;;17.40;83.95
62849;BME280;48941;49.516;8.286;2023-08-06T10:15:20;99412.50;;;17.37;84.92
62849;BME280;48941;49.516;8.286;2023-08-06T10:17:51;99410.16;;;17.27;84.87
62849;BME280;48941;49.516;8.286;2023-08-06T10:20:20;99411.34;;;17.25;84.96
62849;BME280;48941;49.516;8.286;2023-08-06T10:23:00;99415.31;;;17.29;85.31
62849;BME280;48941;49.516;8.286;2023-08-06T10:25:32;99416.66;;;17.18;84.55
62849;BME280;48941;49.516;8.286;2023-08-06T10:28:01;99417.28;;;17.20;83.89
62849;BME280;48941;49.516;8.286;2023-08-06T10:30:41;99425.19;;;17.22;84.37
62849;BME280;48941;49.516;8.286;2023-08-06T10:33:09;99424.78;;;17.25;83.58
62849;BME280;48941;49.516;8.286;2023-08-06T10:35:38;99430.81;;;17.27;82.45
62849;BME280;48941;49.516;8.286;2023-08-06T10:38:11;99431.84;;;17.26;82.49
62849;BME280;48941;49.516;8.286;2023-08-06T10:40:48;99427.47;;;17.25;82.53
62849;BME280;48941;49.516;8.286;2023-08-06T10:43:25;99436.97;;;17.21;82.10
62849;BME280;48941;49.516;8.286;2023-08-06T10:45:53;99445.44;;;17.18;81.87
62849;BME280;48941;49.516;8.286;2023-08-06T10:48:28;99448.13;;;17.18;82.00
62849;BME280;48941;49.516;8.286;2023-08-06T10:50:56;99443.16;;;17.21;81.85
62849;BME280;48941;49.516;8.286;2023-08-06T10:53:25;99449.19;;;17.23;81.24
62849;BME280;48941;49.516;8.286;2023-08-06T10:55:54;99455.22;;;17.25;81.19
62849;BME280;48941;49.516;8.286;2023-08-06T10:58:21;99461.34;;;17.34;80.08
62849;BME280;48941;49.516;8.286;2023-08-06T11:00:49;99458.91;;;17.39;80.68
62849;BME280;48941;49.516;8.286;2023-08-06T11:03:17;99467.06;;;17.46;79.77
62849;BME280;48941;49.516;8.286;2023-08-06T11:05:48;99465.84;;;17.48;79.05
62849;BME280;48941;49.516;8.286;2023-08-06T11:08:23;99467.06;;;17.46;80.12
62849;BME280;48941;49.516;8.286;2023-08-06T11:10:51;99466.19;;;17.60;78.82
62849;BME280;48941;49.516;8.286;2023-08-06T11:13:30;99476.81;;;17.68;78.23
62849;BME280;48941;49.516;8.286;2023-08-06T11:15:59;99471.13;;;17.78;78.70
62849;BME280;48941;49.516;8.286;2023-08-06T11:18:28;99475.19;;;17.89;76.79
62849;BME280;48941;49.516;8.286;2023-08-06T11:20:58;99474.88;;;17.99;76.04
62849;BME280;48941;49.516;8.286;2023-08-06T11:23:26;99478.50;;;18.13;76.90
62849;BME280;48941;49.516;8.286;2023-08-06T11:25:55;99484.25;;;18.31;76.38
62849;BME280;48941;49.516;8.286;2023-08-06T11:28:23;99508.81;;;18.43;74.21
62849;BME280;48941;49.516;8.286;2023-08-06T11:30:53;99492.44;;;18.44;73.18
62849;BME280;48941;49.516;8.286;2023-08-06T11:33:22;99498.47;;;18.46;73.86
62849;BME280;48941;49.516;8.286;2023-08-06T11:35:52;99500.56;;;18.51;73.17
62849;BME280;48941;49.516;8.286;2023-08-06T11:38:20;99506.19;;;18.49;72.59
62849;BME280;48941;49.516;8.286;2023-08-06T11:40:47;99506.41;;;18.55;70.72
62849;BME280;48941;49.516;8.286;2023-08-06T11:43:15;99497.88;;;18.51;72.06
62849;BME280;48941;49.516;8.286;2023-08-06T11:45:45;99511.81;;;18.55;70.96
62849;BME280;48941;49.516;8.286;2023-08-06T11:48:15;99510.97;;;18.54;70.29
62849;BME280;48941;49.516;8.286;2023-08-06T11:50:43;99506.38;;;18.48;68.82
62849;BME280;48941;49.516;8.286;2023-08-06T11:53:13;99516.81;;;18.58;68.71
62849;BME280;48941;49.516;8.286;2023-08-06T11:55:41;99523.69;;;18.60;68.54
62849;BME280;48941;49.516;8.286;2023-08-06T11:58:10;99522.78;;;18.53;67.24
62849;BME280;48941;49.516;8.286;2023-08-06T12:00:39;99533.00;;;18.58;67.89
62849;BME280;48941;49.516;8.286;2023-08-06T12:03:07;99533.38;;;18.55;66.86
62849;BME280;48941;49.516;8.286;2023-08-06T12:05:37;99540.84;;;18.52;67.02
62849;BME280;48941;49.516;8.286;2023-08-06T12:08:05;99547.06;;;18.53;66.69
62849;BME280;48941;49.516;8.286;2023-08-06T12:10:33;99546.03;;;18.54;67.73
62849;BME280;48941;49.516;8.286;2023-08-06T12:13:01;99563.81;;;18.48;66.90
62849;BME280;48941;49.516;8.286;2023-08-06T12:15:29;99564.28;;;18.52;65.60
62849;BME280;48941;49.516;8.286;2023-08-06T12:17:59;99553.31;;;18.54;66.39
62849;BME280;48941;49.516;8.286;2023-08-06T12:20:27;99576.53;;;18.55;66.29
62849;BME280;48941;49.516;8.286;2023-08-06T12:22:56;99572.22;;;18.60;66.23
62849;BME280;48941;49.516;8.286;2023-08-06T12:25:24;99575.97;;;18.59;67.12
62849;BME280;48941;49.516;8.286;2023-08-06T12:27:52;99583.59;;;18.56;65.73
62849;BME280;48941;49.516;8.286;2023-08-06T12:30:19;99581.03;;;18.47;65.75
62849;BME280;48941;49.516;8.286;2023-08-06T12:32:47;99572.09;;;18.47;67.06
62849;BME280;48941;49.516;8.286;2023-08-06T12:35:16;99588.22;;;18.40;65.92
62849;BME280;48941;49.516;8.286;2023-08-06T12:37:44;99602.16;;;18.44;67.50
62849;BME280;48941;49.516;8.286;2023-08-06T12:40:13;99593.16;;;18.37;66.47
62849;BME280;48941;49.516;8.286;2023-08-06T12:43:01;99597.72;;;18.36;67.72
62849;BME280;48941;49.516;8.286;2023-08-06T12:45:29;99590.66;;;18.35;68.30
62849;BME280;48941;49.516;8.286;2023-08-06T12:47:56;99599.34;;;18.30;68.71
62849;BME280;48941;49.516;8.286;2023-08-06T12:50:24;99593.56;;;18.34;68.93
62849;BME280;48941;49.516;8.286;2023-08-06T12:52:52;99598.69;;;18.28;69.38
62849;BME280;48941;49.516;8.286;2023-08-06T12:55:21;99601.16;;;18.23;70.01
62849;BME280;48941;49.516;8.286;2023-08-06T12:57:49;99601.50;;;18.20;68.70
62849;BME280;48941;49.516;8.286;2023-08-06T13:00:24;99592.41;;;18.21;67.82
62849;BME280;48941;49.516;8.286;2023-08-06T13:02:52;99614.81;;;18.22;67.46
62849;BME280;48941;49.516;8.286;2023-08-06T13:05:20;99620.19;;;18.22;67.54
62849;BME280;48941;49.516;8.286;2023-08-06T13:07:48;99622.88;;;18.22;68.04